Terminal Aerodrome Forecast
Issued by NWS Aberdeen, SD

Home | Current Version | Previous Version | Text Only | Print | Product List | Glossary On
Versions: 1 2 3 4 5 6 7 8 9 10 11 12 13 14 15 16 17 18 19 20 21 22 23 24 25 26 27 28 29 30 31 32 33 34 35 36 37 38 39 40 41 42 43 44
000
FTUS43 KABR 292340
TAFABR
TAF
KABR 292340Z 3000/3024 VRB05KT P6SM SKC
     FM300400 20005KT P6SM FEW250
     FM300900 16004KT P6SM VCTS SCT250CB
     FM301200 15005KT P6SM SCT250
     FM301500 16009KT P6SM SCT250
     FM301800 16013KT P6SM VCSH SCT090
     FM302000 16014KT P6SM VCSH BKN090=

USA.gov is the U.S. government's official web portal to all federal, state and local government web resources and services.